Time,TemperatureF,DewpointF,PressureIn,WindDirection,WindDirectionDegrees,WindSpeedMPH,WindSpeedGustMPH,Humidity,HourlyPrecipIn,Conditions,Clouds,dailyrainin,SoftwareType,DateUTC
2013-05-24 00:00:00,75.0,71.0,30.04,West,274,0.0,1.0,88,0.00,,,0.00,weatherlink.com 1.10,2013-05-24 05:00:00,
2013-05-24 00:15:00,74.5,71.0,30.04,West,280,2.0,2.0,88,0.00,,,0.00,weatherlink.com 1.10,2013-05-24 05:15:00,
2013-05-24 00:30:00,74.2,71.0,30.04,SSW,205,0.0,1.0,88,0.00,,,0.00,weatherlink.com 1.10,2013-05-24 05:30:00,
2013-05-24 00:45:00,73.7,70.0,30.04,SSW,194,0.0,1.0,89,0.00,,,0.00,weatherlink.com 1.10,2013-05-24 05:45:00,
2013-05-24 01:00:00,73.1,70.0,30.05,SW,215,0.0,1.0,89,0.00,,,0.00,weatherlink.com 1.10,2013-05-24 06:00:00,
2013-05-24 01:15:00,72.6,70.0,30.05,WSW,240,0.0,2.0,90,0.00,,,0.00,weatherlink.com 1.10,2013-05-24 06:15:00,
2013-05-24 01:30:00,72.2,70.0,30.06,NW,323,0.0,1.0,91,0.00,,,0.00,weatherlink.com 1.10,2013-05-24 06:30:00,
2013-05-24 01:45:00,72.3,69.0,30.05,WNW,290,0.0,1.0,90,0.00,,,0.00,weatherlink.com 1.10,2013-05-24 06:45:00,
2013-05-24 02:00:00,72.2,69.0,30.05,NNW,329,0.0,1.0,90,0.00,,,0.00,weatherlink.com 1.10,2013-05-24 07:00:00,
2013-05-24 02:15:00,72.0,69.0,30.05,WNW,298,0.0,1.0,90,0.00,,,0.00,weatherlink.com 1.10,2013-05-24 07:15:00,
2013-05-24 02:30:00,71.4,69.0,30.05,WNW,298,0.0,0.0,92,0.00,,,0.00,weatherlink.com 1.10,2013-05-24 07:30:00,
2013-05-24 02:45:00,71.1,69.0,30.05,WNW,298,0.0,0.0,92,0.00,,,0.00,weatherlink.com 1.10,2013-05-24 07:45:00,
2013-05-24 03:01:00,70.8,69.0,30.06,WNW,298,0.0,0.0,93,0.00,,,0.00,weatherlink.com 1.10,2013-05-24 08:01:00,
2013-05-24 03:16:00,70.5,68.0,30.05,WNW,297,0.0,0.0,93,0.00,,,0.00,weatherlink.com 1.10,2013-05-24 08:16:00,
2013-05-24 03:31:00,70.3,68.0,30.05,WNW,298,0.0,0.0,93,0.00,,,0.00,weatherlink.com 1.10,2013-05-24 08:31:00,
2013-05-24 03:46:00,70.1,68.0,30.06,WNW,298,0.0,0.0,94,0.00,,,0.00,weatherlink.com 1.10,2013-05-24 08:46:00,
2013-05-24 04:01:00,69.9,68.0,30.06,WNW,298,0.0,0.0,94,0.00,,,0.00,weatherlink.com 1.10,2013-05-24 09:01:00,
2013-05-24 04:16:00,69.8,68.0,30.06,WNW,298,0.0,0.0,94,0.00,,,0.00,weatherlink.com 1.10,2013-05-24 09:16:00,
2013-05-24 04:31:00,69.7,68.0,30.06,WNW,298,0.0,0.0,94,0.00,,,0.00,weatherlink.com 1.10,2013-05-24 09:31:00,
2013-05-24 04:46:00,69.5,68.0,30.06,WNW,298,0.0,0.0,94,0.00,,,0.00,weatherlink.com 1.10,2013-05-24 09:46:00,
2013-05-24 05:01:00,69.3,68.0,30.07,WNW,298,0.0,0.0,94,0.00,,,0.00,weatherlink.com 1.10,2013-05-24 10:01:00,
2013-05-24 05:16:00,69.1,67.0,30.07,WNW,298,0.0,0.0,94,0.00,,,0.00,weatherlink.com 1.10,2013-05-24 10:16:00,
2013-05-24 05:31:00,69.1,67.0,30.08,NW,325,0.0,1.0,94,0.00,,,0.00,weatherlink.com 1.10,2013-05-24 10:31:00,
2013-05-24 05:46:00,68.9,67.0,30.09,NW,324,0.0,1.0,94,0.00,,,0.00,weatherlink.com 1.10,2013-05-24 10:46:00,
2013-05-24 06:01:00,68.8,67.0,30.09,NNW,333,0.0,1.0,94,0.00,,,0.00,weatherlink.com 1.10,2013-05-24 11:01:00,
2013-05-24 06:16:00,68.7,67.0,30.10,NNW,333,0.0,0.0,94,0.00,,,0.00,weatherlink.com 1.10,2013-05-24 11:16:00,
2013-05-24 06:31:00,68.8,67.0,30.10,NNW,333,0.0,0.0,94,0.00,,,0.00,weatherlink.com 1.10,2013-05-24 11:31:00,
2013-05-24 06:46:00,68.9,68.0,30.11,NNW,333,0.0,0.0,95,0.00,,,0.00,weatherlink.com 1.10,2013-05-24 11:46:00,
2013-05-24 07:01:00,69.3,68.0,30.11,North,353,0.0,1.0,95,0.00,,,0.00,weatherlink.com 1.10,2013-05-24 12:01:00,
2013-05-24 07:16:00,70.0,68.0,30.12,NE,39,0.0,2.0,94,0.00,,,0.00,weatherlink.com 1.10,2013-05-24 12:16:00,
2013-05-24 07:31:00,71.0,69.0,30.13,NE,44,0.0,2.0,92,0.00,,,0.00,weatherlink.com 1.10,2013-05-24 12:31:00,
2013-05-24 07:46:00,72.0,69.0,30.14,ENE,60,2.0,2.0,90,0.00,,,0.00,weatherlink.com 1.10,2013-05-24 12:46:00,
2013-05-24 08:01:00,73.0,69.0,30.14,NNE,30,1.0,3.0,86,0.00,,,0.00,weatherlink.com 1.10,2013-05-24 13:01:00,
2013-05-24 08:16:00,73.7,68.0,30.15,NE,43,1.0,6.0,83,0.00,,,0.00,weatherlink.com 1.10,2013-05-24 13:16:00,
2013-05-24 08:31:00,74.4,68.0,30.15,SE,136,1.0,5.0,81,0.00,,,0.00,weatherlink.com 1.10,2013-05-24 13:31:00,
2013-05-24 08:46:00,74.8,68.0,30.16,NE,37,4.0,6.0,78,0.00,,,0.00,weatherlink.com 1.10,2013-05-24 13:46:00,
2013-05-24 09:01:00,75.4,68.0,30.16,North,8,2.0,6.0,77,0.00,,,0.00,weatherlink.com 1.10,2013-05-24 14:01:00,
2013-05-24 09:16:00,75.8,69.0,30.17,SE,139,0.0,5.0,78,0.00,,,0.00,weatherlink.com 1.10,2013-05-24 14:16:00,
2013-05-24 09:31:00,76.1,68.0,30.17,ENE,65,1.0,5.0,77,0.00,,,0.00,weatherlink.com 1.10,2013-05-24 14:31:00,
2013-05-24 09:46:00,76.7,68.0,30.16,ENE,63,2.0,3.0,74,0.00,,,0.00,weatherlink.com 1.10,2013-05-24 14:46:00,
2013-05-24 10:01:00,77.5,68.0,30.16,North,353,0.0,7.0,73,0.00,,,0.00,weatherlink.com 1.10,2013-05-24 15:01:00,
2013-05-24 10:16:00,77.8,68.0,30.16,NNE,23,4.0,8.0,72,0.00,,,0.00,weatherlink.com 1.10,2013-05-24 15:16:00,
2013-05-24 10:31:00,79.0,69.0,30.16,SE,135,1.0,3.0,72,0.00,,,0.00,weatherlink.com 1.10,2013-05-24 15:31:00,
2013-05-24 10:47:00,79.0,69.0,30.17,NE,50,0.0,7.0,72,0.00,,,0.00,weatherlink.com 1.10,2013-05-24 15:47:00,
2013-05-24 11:02:00,80.0,70.0,30.18,NE,43,1.0,8.0,72,0.00,,,0.00,weatherlink.com 1.10,2013-05-24 16:02:00,
2013-05-24 11:17:00,80.4,68.0,30.18,SSW,203,1.0,6.0,67,0.00,,,0.00,weatherlink.com 1.10,2013-05-24 16:17:00,
2013-05-24 11:32:00,80.2,68.0,30.18,ENE,61,4.0,6.0,67,0.00,,,0.00,weatherlink.com 1.10,2013-05-24 16:32:00,
2013-05-24 11:47:00,81.0,69.0,30.18,NE,50,0.0,7.0,66,0.00,,,0.00,weatherlink.com 1.10,2013-05-24 16:47:00,
2013-05-24 12:02:00,80.9,68.0,30.18,ENE,60,3.0,8.0,65,0.00,,,0.00,weatherlink.com 1.10,2013-05-24 17:02:00,
2013-05-24 12:17:00,82.3,69.0,30.18,ENE,71,2.0,4.0,64,0.00,,,0.00,weatherlink.com 1.10,2013-05-24 17:17:00,
2013-05-24 12:32:00,82.5,69.0,30.18,SSE,152,0.0,3.0,64,0.00,,,0.00,weatherlink.com 1.10,2013-05-24 17:32:00,
2013-05-24 12:47:00,83.4,69.0,30.17,SE,128,1.0,7.0,62,0.00,,,0.00,weatherlink.com 1.10,2013-05-24 17:47:00,
2013-05-24 13:02:00,83.3,68.0,30.18,NE,44,2.0,5.0,61,0.00,,,0.00,weatherlink.com 1.10,2013-05-24 18:02:00,
2013-05-24 13:17:00,83.2,68.0,30.18,NE,49,3.0,8.0,61,0.00,,,0.00,weatherlink.com 1.10,2013-05-24 18:17:00,
2013-05-24 13:32:00,84.7,70.0,30.18,North,8,5.0,5.0,61,0.00,,,0.00,weatherlink.com 1.10,2013-05-24 18:32:00,
2013-05-24 13:47:00,84.7,71.0,30.17,NE,55,1.0,4.0,63,0.00,,,0.00,weatherlink.com 1.10,2013-05-24 18:47:00,
2013-05-24 14:02:00,83.9,70.0,30.17,SW,228,0.0,5.0,63,0.00,,,0.00,weatherlink.com 1.10,2013-05-24 19:02:00,
2013-05-24 14:17:00,83.5,69.0,30.17,NE,39,4.0,6.0,61,0.00,,,0.00,weatherlink.com 1.10,2013-05-24 19:17:00,
2013-05-24 14:32:00,82.8,69.0,30.17,ENE,66,4.0,5.0,63,0.00,,,0.00,weatherlink.com 1.10,2013-05-24 19:32:00,
2013-05-24 14:47:00,83.5,69.0,30.17,NNE,18,1.0,5.0,61,0.00,,,0.00,weatherlink.com 1.10,2013-05-24 19:47:00,
2013-05-24 15:02:00,83.6,69.0,30.16,NE,41,2.0,9.0,61,0.00,,,0.00,weatherlink.com 1.10,2013-05-24 20:02:00,
2013-05-24 15:17:00,85.1,69.0,30.16,NNE,26,0.0,3.0,59,0.00,,,0.00,weatherlink.com 1.10,2013-05-24 20:17:00,
2013-05-24 15:32:00,84.4,69.0,30.16,NE,52,3.0,5.0,60,0.00,,,0.00,weatherlink.com 1.10,2013-05-24 20:32:00,
2013-05-24 15:47:00,85.7,70.0,30.15,ENE,73,1.0,5.0,60,0.00,,,0.00,weatherlink.com 1.10,2013-05-24 20:47:00,
2013-05-24 16:02:00,84.0,69.0,30.14,North,10,1.0,6.0,61,0.00,,,0.00,weatherlink.com 1.10,2013-05-24 21:02:00,
2013-05-24 16:17:00,84.3,69.0,30.14,NE,36,2.0,5.0,61,0.00,,,0.00,weatherlink.com 1.10,2013-05-24 21:17:00,
2013-05-24 16:32:00,83.4,69.0,30.13,NNE,33,3.0,6.0,62,0.00,,,0.00,weatherlink.com 1.10,2013-05-24 21:32:00,
2013-05-24 16:47:00,83.6,70.0,30.13,East,84,0.0,5.0,64,0.00,,,0.00,weatherlink.com 1.10,2013-05-24 21:47:00,
2013-05-24 17:02:00,82.5,70.0,30.13,NNE,33,3.0,5.0,65,0.00,,,0.00,weatherlink.com 1.10,2013-05-24 22:02:00,
2013-05-24 17:17:00,82.7,69.0,30.13,NNE,12,1.0,5.0,64,0.00,,,0.00,weatherlink.com 1.10,2013-05-24 22:17:00,
2013-05-24 17:32:00,82.9,69.0,30.13,North,8,1.0,5.0,63,0.00,,,0.00,weatherlink.com 1.10,2013-05-24 22:32:00,
2013-05-24 17:47:00,81.4,69.0,30.12,ENE,62,2.0,4.0,66,0.00,,,0.00,weatherlink.com 1.10,2013-05-24 22:47:00,
2013-05-24 18:02:00,81.2,69.0,30.11,ENE,61,2.0,4.0,66,0.00,,,0.00,weatherlink.com 1.10,2013-05-24 23:02:00,
2013-05-24 18:17:00,81.0,69.0,30.12,NNE,30,1.0,4.0,67,0.00,,,0.00,weatherlink.com 1.10,2013-05-24 23:17:00,
2013-05-24 18:32:00,80.5,69.0,30.11,NE,47,3.0,5.0,67,0.00,,,0.00,weatherlink.com 1.10,2013-05-24 23:32:00,
2013-05-24 18:47:00,80.1,69.0,30.12,ENE,68,0.0,6.0,68,0.00,,,0.00,weatherlink.com 1.10,2013-05-24 23:47:00,
2013-05-24 19:02:00,79.7,69.0,30.12,North,8,2.0,2.0,69,0.00,,,0.00,weatherlink.com 1.10,2013-05-25 00:02:00,
2013-05-24 19:17:00,78.9,69.0,30.12,ENE,65,3.0,3.0,71,0.00,,,0.00,weatherlink.com 1.10,2013-05-25 00:17:00,
2013-05-24 19:32:00,78.1,69.0,30.13,NE,37,0.0,2.0,73,0.00,,,0.00,weatherlink.com 1.10,2013-05-25 00:32:00,
2013-05-24 19:47:00,77.3,69.0,30.13,NE,37,0.0,1.0,75,0.00,,,0.00,weatherlink.com 1.10,2013-05-25 00:47:00,
2013-05-24 20:02:00,76.5,68.0,30.14,NE,37,0.0,0.0,76,0.00,,,0.00,weatherlink.com 1.10,2013-05-25 01:02:00,
2013-05-24 20:17:00,75.7,68.0,30.15,NE,37,0.0,1.0,77,0.00,,,0.00,weatherlink.com 1.10,2013-05-25 01:17:00,
2013-05-24 20:32:00,75.1,68.0,30.14,NE,39,0.0,1.0,78,0.00,,,0.00,weatherlink.com 1.10,2013-05-25 01:32:00,
2013-05-24 20:47:00,74.6,68.0,30.15,NE,39,0.0,1.0,79,0.00,,,0.00,weatherlink.com 1.10,2013-05-25 01:47:00,
2013-05-24 21:02:00,74.1,68.0,30.15,NE,38,0.0,1.0,80,0.00,,,0.00,weatherlink.com 1.10,2013-05-25 02:02:00,
2013-05-24 21:17:00,73.6,67.0,30.15,NE,39,0.0,1.0,81,0.00,,,0.00,weatherlink.com 1.10,2013-05-25 02:17:00,
2013-05-24 21:32:00,73.1,67.0,30.16,NE,39,0.0,1.0,82,0.00,,,0.00,weatherlink.com 1.10,2013-05-25 02:32:00,
2013-05-24 21:47:00,72.8,67.0,30.16,NE,39,0.0,0.0,83,0.00,,,0.00,weatherlink.com 1.10,2013-05-25 02:47:00,
2013-05-24 22:02:00,72.4,67.0,30.16,NE,39,0.0,1.0,84,0.00,,,0.00,weatherlink.com 1.10,2013-05-25 03:02:00,
2013-05-24 22:17:00,71.8,67.0,30.17,NE,39,0.0,1.0,85,0.00,,,0.00,weatherlink.com 1.10,2013-05-25 03:17:00,
2013-05-24 22:32:00,71.6,67.0,30.17,NNE,20,0.0,1.0,85,0.00,,,0.00,weatherlink.com 1.10,2013-05-25 03:32:00,
2013-05-24 22:47:00,71.5,67.0,30.17,North,8,0.0,1.0,84,0.00,,,0.00,weatherlink.com 1.10,2013-05-25 03:47:00,
2013-05-24 23:02:00,71.1,66.0,30.17,NNE,19,0.0,0.0,84,0.00,,,0.00,weatherlink.com 1.10,2013-05-25 04:02:00,
2013-05-24 23:17:00,70.6,65.0,30.17,NE,41,1.0,2.0,83,0.00,,,0.00,weatherlink.com 1.10,2013-05-25 04:17:00,
2013-05-24 23:32:00,70.4,65.0,30.17,NNW,329,0.0,1.0,82,0.00,,,0.00,weatherlink.com 1.10,2013-05-25 04:32:00,
2013-05-24 23:47:00,69.9,63.0,30.17,North,356,0.0,1.0,79,0.00,,,0.00,weatherlink.com 1.10,2013-05-25 04:47:00,